Time;durP1;ratioP1;P1;durP2;ratioP2;P2;SDS_P1;SDS_P2;PMS_P1;PMS_P2;Temp;Humidity;BMP_temperature;BMP_pressure;BME280_temperature;BME280_humidity;BME280_pressure;Samples;Min_cycle;Max_cycle;Signal;HPM_P1;HPM_P2
2021/05/04 00:01:07;;;;;;;8.05;2.97;;;12.80;54.70;;;;;;5023899;28;20026;-77
2021/05/04 00:03:32;;;;;;;5.22;2.25;;;12.80;54.50;;;;;;4993217;28;20031;-76
2021/05/04 00:05:58;;;;;;;10.00;2.78;;;12.90;55.80;;;;;;5028155;28;20022;-76
2021/05/04 00:08:23;;;;;;;11.30;3.20;;;13.00;51.10;;;;;;4996420;28;20105;-76
2021/05/04 00:10:49;;;;;;;12.98;2.85;;;13.00;50.10;;;;;;5027783;28;20028;-77
2021/05/04 00:13:14;;;;;;;7.28;2.47;;;13.00;51.20;;;;;;5027880;28;20018;-77
2021/05/04 00:15:40;;;;;;;8.95;3.45;;;13.00;54.50;;;;;;4995968;28;20105;-75
2021/05/04 00:18:06;;;;;;;4.70;1.90;;;13.00;52.90;;;;;;5027771;28;20073;-76
2021/05/04 00:20:31;;;;;;;4.95;1.92;;;13.00;53.50;;;;;;4996222;28;20026;-74
2021/05/04 00:22:57;;;;;;;4.53;1.95;;;13.00;52.20;;;;;;5027412;28;20026;-76
2021/05/04 00:25:23;;;;;;;5.03;2.85;;;12.90;53.10;;;;;;4996384;28;20084;-76
2021/05/04 00:27:48;;;;;;;3.53;2.05;;;12.90;51.70;;;;;;4995486;28;20018;-76
2021/05/04 00:30:14;;;;;;;7.38;3.00;;;12.90;55.00;;;;;;4994706;28;20102;-75
2021/05/04 00:32:40;;;;;;;9.63;2.60;;;12.90;54.20;;;;;;4996111;28;20031;-75
2021/05/04 00:35:06;;;;;;;7.90;2.65;;;12.80;54.60;;;;;;4994443;28;20443;-75
2021/05/04 00:37:31;;;;;;;8.38;2.03;;;12.70;54.80;;;;;;4995611;28;20125;-76
2021/05/04 00:39:57;;;;;;;6.45;2.05;;;12.60;56.40;;;;;;4994146;28;20041;-75
2021/05/04 00:42:25;;;;;;;5.68;2.30;;;12.50;56.90;;;;;;5027141;28;20050;-77
2021/05/04 00:44:51;;;;;;;6.82;2.75;;;12.40;58.00;;;;;;4995677;28;20018;-78
2021/05/04 00:47:17;;;;;;;7.35;2.58;;;12.20;58.60;;;;;;4994616;28;20021;-80
2021/05/04 00:49:43;;;;;;;6.03;2.33;;;12.20;60.00;;;;;;5027311;28;20023;-78
2021/05/04 00:52:09;;;;;;;9.75;1.80;;;12.00;60.90;;;;;;5027872;28;20117;-77
2021/05/04 00:54:35;;;;;;;7.05;2.60;;;11.90;62.10;;;;;;4996239;28;20105;-78
2021/05/04 00:57:03;;;;;;;4.95;2.75;;;11.80;62.80;;;;;;5027056;28;20061;-77
2021/05/04 00:59:30;;;;;;;6.28;2.50;;;11.70;63.70;;;;;;5028157;28;20459;-78
2021/05/04 01:01:56;;;;;;;6.70;2.50;;;11.60;64.40;;;;;;4995882;28;20056;-77
2021/05/04 01:04:23;;;;;;;9.60;2.47;;;11.50;64.90;;;;;;5027731;28;20474;-78
2021/05/04 01:06:49;;;;;;;7.85;3.08;;;11.40;66.30;;;;;;5026458;28;20096;-78
2021/05/04 01:09:16;;;;;;;7.82;2.30;;;11.30;66.70;;;;;;5026601;28;20018;-78
2021/05/04 01:11:43;;;;;;;8.65;2.50;;;11.20;66.70;;;;;;4993739;28;20030;-78
2021/05/04 01:14:09;;;;;;;6.15;2.55;;;11.10;68.50;;;;;;5026192;28;20434;-77
2021/05/04 01:16:34;;;;;;;7.75;2.55;;;11.00;69.40;;;;;;5026671;28;20018;-77
2021/05/04 01:19:00;;;;;;;5.25;2.25;;;10.90;70.20;;;;;;4993779;28;20443;-77
2021/05/04 01:21:25;;;;;;;5.65;2.45;;;10.70;70.50;;;;;;4995290;28;20459;-77
2021/05/04 01:23:51;;;;;;;6.00;2.92;;;10.60;72.10;;;;;;4994506;28;20463;-77
2021/05/04 01:26:17;;;;;;;10.45;3.28;;;10.50;72.70;;;;;;5026495;28;20018;-77
2021/05/04 01:28:43;;;;;;;8.57;2.70;;;10.40;73.70;;;;;;4993692;28;20026;-77
2021/05/04 01:31:08;;;;;;;7.18;3.15;;;10.40;73.90;;;;;;5026225;28;20022;-77
2021/05/04 01:33:34;;;;;;;8.73;2.72;;;10.30;73.40;;;;;;5026278;28;20050;-77
2021/05/04 01:36:01;;;;;;;6.22;2.65;;;10.30;73.20;;;;;;5026047;28;20022;-77
2021/05/04 01:38:26;;;;;;;13.77;3.55;;;10.20;74.40;;;;;;5026289;28;20026;-77
2021/05/04 01:40:52;;;;;;;4.05;2.40;;;10.20;74.70;;;;;;5025406;28;20116;-77
2021/05/04 01:43:18;;;;;;;5.88;3.50;;;10.20;73.80;;;;;;5026273;28;20027;-78
2021/05/04 01:45:43;;;;;;;5.57;2.70;;;10.20;73.70;;;;;;5026334;28;20029;-77
2021/05/04 01:48:09;;;;;;;5.25;3.00;;;10.10;74.20;;;;;;4993267;28;20018;-77
2021/05/04 01:50:36;;;;;;;5.80;2.55;;;10.10;75.70;;;;;;5026147;28;20038;-77
2021/05/04 01:53:01;;;;;;;7.38;3.50;;;10.10;77.00;;;;;;4994548;28;20025;-77
2021/05/04 01:55:27;;;;;;;6.30;3.10;;;10.00;75.30;;;;;;4994508;28;20018;-76
2021/05/04 01:57:52;;;;;;;7.45;2.88;;;10.00;76.30;;;;;;4992962;28;20018;-76
2021/05/04 02:00:19;;;;;;;8.27;2.90;;;10.00;75.00;;;;;;4995070;28;20102;-77
2021/05/04 02:02:44;;;;;;;4.88;2.80;;;10.00;77.00;;;;;;4993970;28;20065;-77
2021/05/04 02:05:10;;;;;;;7.93;3.33;;;10.00;77.00;;;;;;4993772;28;20053;-76
2021/05/04 02:07:36;;;;;;;7.97;3.25;;;9.90;77.10;;;;;;5025311;28;20460;-76
2021/05/04 02:10:03;;;;;;;5.40;2.72;;;9.90;77.90;;;;;;5025501;28;20022;-76
2021/05/04 02:12:29;;;;;;;11.40;4.00;;;9.80;76.70;;;;;;5025306;28;20063;-77
2021/05/04 02:14:54;;;;;;;8.25;3.13;;;9.80;79.90;;;;;;5025098;28;20037;-77
2021/05/04 02:17:20;;;;;;;9.13;3.72;;;9.70;78.70;;;;;;5025415;28;20112;-76
2021/05/04 02:19:46;;;;;;;6.32;2.92;;;9.70;78.50;;;;;;5025693;28;20022;-77
2021/05/04 02:22:11;;;;;;;7.30;3.47;;;9.60;78.20;;;;;;5025198;28;20027;-77
2021/05/04 02:24:37;;;;;;;8.93;3.72;;;9.60;80.50;;;;;;5025338;28;20014;-77
2021/05/04 02:27:03;;;;;;;5.20;2.80;;;9.60;82.10;;;;;;5024298;28;20030;-77
2021/05/04 02:29:28;;;;;;;7.28;4.00;;;9.60;80.20;;;;;;5025096;28;20415;-77
2021/05/04 02:31:54;;;;;;;5.50;2.83;;;9.60;82.60;;;;;;5024852;28;20105;-77
2021/05/04 02:34:20;;;;;;;6.93;2.47;;;9.60;79.10;;;;;;5025201;28;20029;-77
2021/05/04 02:36:45;;;;;;;11.10;4.18;;;9.60;80.70;;;;;;5025279;28;20087;-77
2021/05/04 02:39:11;;;;;;;5.45;2.45;;;9.50;81.40;;;;;;4992194;28;20485;-77
2021/05/04 02:41:36;;;;;;;6.47;3.15;;;9.60;79.10;;;;;;5024878;28;20459;-77
2021/05/04 02:44:03;;;;;;;4.55;2.83;;;9.60;80.00;;;;;;5024836;28;20062;-78
2021/05/04 02:46:29;;;;;;;6.15;3.20;;;9.60;81.10;;;;;;5025037;28;20378;-77
2021/05/04 02:48:56;;;;;;;6.72;2.88;;;9.50;81.40;;;;;;4993690;28;20029;-78
2021/05/04 02:51:21;;;;;;;5.43;3.00;;;9.60;80.50;;;;;;5025600;28;20026;-76
2021/05/04 02:53:47;;;;;;;5.65;3.40;;;9.50;79.70;;;;;;5026231;28;20534;-77
2021/05/04 02:56:13;;;;;;;6.28;3.05;;;9.50;82.90;;;;;;4993710;28;20030;-77
2021/05/04 02:58:39;;;;;;;5.68;2.80;;;9.50;81.20;;;;;;4992486;28;20466;-78
2021/05/04 03:01:04;;;;;;;10.10;3.05;;;9.40;82.40;;;;;;5024504;28;20018;-78
2021/05/04 03:03:30;;;;;;;7.03;3.58;;;9.40;80.10;;;;;;5024781;28;20037;-79
2021/05/04 03:05:56;;;;;;;4.85;2.53;;;9.40;82.90;;;;;;4992776;28;20026;-78
2021/05/04 03:08:23;;;;;;;5.88;3.47;;;9.40;82.60;;;;;;5024625;28;20030;-77
2021/05/04 03:10:48;;;;;;;7.18;3.15;;;9.30;85.90;;;;;;4992883;28;20455;-78
2021/05/04 03:13:14;;;;;;;6.95;4.05;;;9.30;82.70;;;;;;5024413;28;20033;-77
2021/05/04 03:15:40;;;;;;;7.88;3.75;;;9.30;84.40;;;;;;5024566;28;20487;-77
2021/05/04 03:18:06;;;;;;;8.30;3.38;;;9.20;84.90;;;;;;5024337;28;20172;-77
2021/05/04 03:20:31;;;;;;;12.13;3.25;;;9.20;83.70;;;;;;4991559;28;20029;-77
2021/05/04 03:22:57;;;;;;;4.95;2.95;;;9.20;85.20;;;;;;5024058;28;20112;-76
2021/05/04 03:25:22;;;;;;;6.00;2.83;;;9.20;85.70;;;;;;5024473;28;20030;-77
2021/05/04 03:27:48;;;;;;;8.98;3.10;;;9.30;83.60;;;;;;5024384;28;20141;-77
2021/05/04 03:30:14;;;;;;;5.47;3.15;;;9.30;83.60;;;;;;4993104;28;20014;-77
2021/05/04 03:32:42;;;;;;;6.97;3.17;;;9.30;82.70;;;;;;4992742;28;20026;-78
2021/05/04 03:35:11;;;;;;;4.85;2.08;;;9.30;80.40;;;;;;5024248;28;20027;-78
2021/05/04 03:37:36;;;;;;;5.63;3.03;;;9.50;81.20;;;;;;4993191;28;20073;-77
2021/05/04 03:40:03;;;;;;;6.10;2.97;;;9.40;82.40;;;;;;4996029;28;20015;-77
2021/05/04 03:42:29;;;;;;;4.60;2.63;;;9.40;83.00;;;;;;5027954;28;20074;-77
2021/05/04 03:44:54;;;;;;;5.22;2.63;;;9.40;83.80;;;;;;5028229;28;20061;-77
2021/05/04 03:47:20;;;;;;;4.30;2.42;;;9.40;83.00;;;;;;5028615;28;20025;-77
2021/05/04 03:49:45;;;;;;;6.85;2.85;;;9.50;81.40;;;;;;5028524;28;20018;-77
2021/05/04 03:52:11;;;;;;;7.78;3.13;;;9.50;82.50;;;;;;5028329;28;20034;-77
2021/05/04 03:54:37;;;;;;;10.23;3.22;;;9.40;80.20;;;;;;5028383;28;20014;-76
2021/05/04 03:57:02;;;;;;;6.72;3.15;;;9.40;83.70;;;;;;4996421;28;20025;-77
2021/05/04 03:59:28;;;;;;;3.92;2.40;;;9.30;82.80;;;;;;5028363;28;20371;-76
2021/05/04 04:01:53;;;;;;;8.35;4.55;;;9.30;81.20;;;;;;5028267;28;20125;-77
2021/05/04 04:04:19;;;;;;;5.28;3.35;;;9.30;86.40;;;;;;5027842;28;20027;-77
2021/05/04 04:06:45;;;;;;;6.20;4.25;;;9.30;85.30;;;;;;5027917;28;20517;-77
2021/05/04 04:09:10;;;;;;;4.65;2.60;;;9.20;86.00;;;;;;4995977;28;20091;-78
2021/05/04 04:11:37;;;;;;;9.38;3.35;;;9.20;83.30;;;;;;4996610;28;20030;-76
2021/05/04 04:14:04;;;;;;;5.68;3.30;;;9.20;83.90;;;;;;5027694;28;20113;-76
2021/05/04 04:16:29;;;;;;;5.78;2.83;;;9.10;85.00;;;;;;4996073;28;20018;-76
2021/05/04 04:18:55;;;;;;;8.75;3.13;;;9.10;85.30;;;;;;5027789;28;20387;-77
2021/05/04 04:21:21;;;;;;;6.68;2.35;;;9.10;86.60;;;;;;5027361;28;20459;-76
2021/05/04 04:23:46;;;;;;;5.60;3.53;;;9.20;82.70;;;;;;5027313;28;20045;-76
2021/05/04 04:26:12;;;;;;;7.28;2.70;;;9.20;86.40;;;;;;5027067;28;20085;-76
2021/05/04 04:28:37;;;;;;;7.22;3.25;;;9.20;84.90;;;;;;4994843;28;20479;-76
2021/05/04 04:31:03;;;;;;;6.68;3.50;;;9.20;84.00;;;;;;5027250;28;20076;-77
2021/05/04 04:33:29;;;;;;;7.45;3.20;;;9.20;86.50;;;;;;5027586;28;20021;-77
2021/05/04 04:35:55;;;;;;;6.22;3.53;;;9.20;88.60;;;;;;5027150;28;20375;-77
2021/05/04 04:38:24;;;;;;;7.78;3.30;;;9.20;85.30;;;;;;5027057;28;20455;-77
2021/05/04 04:40:49;;;;;;;4.15;2.65;;;9.20;84.60;;;;;;4994093;28;20073;-78
2021/05/04 04:43:16;;;;;;;6.05;4.05;;;9.20;84.90;;;;;;5027322;28;20410;-78
2021/05/04 04:45:42;;;;;;;6.78;3.78;;;9.10;86.60;;;;;;5027052;28;20517;-77
2021/05/04 04:48:08;;;;;;;7.95;3.53;;;9.10;86.40;;;;;;4995556;28;20054;-77
2021/05/04 04:50:33;;;;;;;7.82;3.95;;;9.10;86.30;;;;;;5027053;28;20046;-77
2021/05/04 04:52:59;;;;;;;7.15;3.45;;;9.10;88.70;;;;;;5026845;28;20471;-76
2021/05/04 04:55:25;;;;;;;5.20;2.83;;;9.00;87.10;;;;;;4996024;28;20029;-76
2021/05/04 04:57:51;;;;;;;6.70;3.42;;;9.10;86.40;;;;;;4995826;28;20022;-76
2021/05/04 05:00:17;;;;;;;6.00;3.45;;;9.10;86.40;;;;;;4994990;28;20033;-77
2021/05/04 05:02:43;;;;;;;6.65;2.92;;;9.10;86.70;;;;;;5026470;28;20403;-77
2021/05/04 05:05:09;;;;;;;4.55;2.75;;;9.10;87.90;;;;;;4993840;28;20056;-76
2021/05/04 05:07:34;;;;;;;5.68;2.35;;;9.10;86.00;;;;;;4994093;28;20023;-77
2021/05/04 05:10:00;;;;;;;3.83;2.42;;;9.10;84.00;;;;;;5026673;28;20026;-77
2021/05/04 05:12:26;;;;;;;6.57;3.55;;;9.10;84.80;;;;;;5026566;28;20026;-77
2021/05/04 05:14:53;;;;;;;5.88;3.20;;;9.20;86.50;;;;;;5026396;28;20049;-78
2021/05/04 05:17:19;;;;;;;5.43;3.50;;;9.20;84.80;;;;;;4993438;28;20084;-77
2021/05/04 05:19:45;;;;;;;8.18;3.08;;;9.20;89.30;;;;;;5026299;28;20026;-77
2021/05/04 05:22:10;;;;;;;5.43;2.75;;;9.20;88.30;;;;;;5026063;28;20038;-76
2021/05/04 05:24:37;;;;;;;5.63;2.80;;;9.20;85.90;;;;;;5026241;28;20018;-77
2021/05/04 05:27:03;;;;;;;4.40;2.00;;;9.20;86.60;;;;;;5026288;28;20023;-77
2021/05/04 05:29:34;;;;;;;6.35;3.60;;;9.20;84.50;;;;;;4993622;28;20014;-77
2021/05/04 05:32:01;;;;;;;6.20;2.63;;;9.20;88.80;;;;;;4994979;28;20095;-76
2021/05/04 05:34:27;;;;;;;6.50;2.53;;;9.30;84.50;;;;;;4993568;28;20536;-76
2021/05/04 05:36:52;;;;;;;5.70;2.30;;;9.40;85.60;;;;;;5026337;28;20066;-77
2021/05/04 05:39:19;;;;;;;7.90;2.47;;;9.40;84.80;;;;;;4994632;28;20018;-77
2021/05/04 05:41:45;;;;;;;6.43;2.70;;;9.50;85.90;;;;;;5025804;28;20050;-76
2021/05/04 05:44:13;;;;;;;3.60;2.03;;;9.60;85.00;;;;;;5025937;28;20030;-76
2021/05/04 05:46:38;;;;;;;9.48;2.58;;;9.60;84.80;;;;;;5026137;28;20367;-75
2021/05/04 05:49:04;;;;;;;10.10;2.40;;;9.60;85.90;;;;;;5025901;28;20184;-75
2021/05/04 05:51:29;;;;;;;5.75;2.42;;;9.70;84.40;;;;;;4994762;28;20026;-77
2021/05/04 05:53:55;;;;;;;4.57;1.77;;;9.70;84.20;;;;;;5025906;28;20018;-78
2021/05/04 05:56:21;;;;;;;3.78;1.67;;;9.80;81.90;;;;;;5025316;28;20025;-78
2021/05/04 05:58:47;;;;;;;4.55;2.08;;;9.80;84.30;;;;;;5025691;28;20109;-77
2021/05/04 06:01:12;;;;;;;6.05;1.80;;;9.80;84.00;;;;;;4992786;28;20087;-76
2021/05/04 06:03:38;;;;;;;6.13;2.20;;;9.90;83.50;;;;;;5025581;28;20030;-76
2021/05/04 06:06:03;;;;;;;6.82;2.10;;;9.90;85.00;;;;;;5025408;28;20030;-76
2021/05/04 06:08:32;;;;;;;7.03;2.40;;;9.90;82.50;;;;;;5025725;28;20048;-76
2021/05/04 06:10:57;;;;;;;5.78;2.20;;;10.00;84.50;;;;;;5025345;28;20014;-77
2021/05/04 06:13:23;;;;;;;5.40;1.80;;;10.00;82.10;;;;;;4992323;28;20097;-77
2021/05/04 06:15:49;;;;;;;4.63;2.05;;;10.10;80.60;;;;;;5025250;28;20026;-77
2021/05/04 06:18:15;;;;;;;11.85;2.40;;;10.10;80.50;;;;;;5025076;28;20025;-77
2021/05/04 06:20:41;;;;;;;8.10;2.40;;;10.10;82.90;;;;;;4994312;28;20018;-78
2021/05/04 06:23:07;;;;;;;6.22;1.67;;;10.10;83.20;;;;;;5025086;28;20046;-77
2021/05/04 06:25:33;;;;;;;7.00;2.03;;;10.20;81.60;;;;;;5025152;28;20064;-77
2021/05/04 06:28:03;;;;;;;5.15;1.73;;;10.10;82.60;;;;;;5025451;28;20065;-77
2021/05/04 06:30:34;;;;;;;4.60;1.30;;;10.10;82.00;;;;;;5024995;28;20021;-78
2021/05/04 06:33:12;;;;;;;6.10;1.70;;;10.10;80.90;;;;;;5025228;28;20365;-77
2021/05/04 06:35:42;;;;;;;5.35;1.83;;;10.10;82.70;;;;;;5025141;28;20029;-77
2021/05/04 06:38:18;;;;;;;12.90;2.70;;;10.10;84.50;;;;;;5025032;28;20145;-77
2021/05/04 06:40:47;;;;;;;5.28;1.95;;;10.00;84.20;;;;;;5025155;28;20188;-78
2021/05/04 06:43:16;;;;;;;6.05;2.00;;;10.00;84.60;;;;;;5024395;28;20046;-79
2021/05/04 06:45:44;;;;;;;6.95;2.38;;;9.90;84.00;;;;;;5025716;28;20029;-79
2021/05/04 06:48:13;;;;;;;8.90;2.85;;;9.90;86.80;;;;;;5025341;28;20022;-79
2021/05/04 06:50:41;;;;;;;8.15;2.65;;;9.90;87.40;;;;;;5025110;28;20019;-78
2021/05/04 06:53:07;;;;;;;7.05;2.80;;;9.90;86.60;;;;;;5025638;28;20463;-79
2021/05/04 06:55:33;;;;;;;4.68;2.08;;;9.90;87.00;;;;;;5018554;28;20038;-78
2021/05/04 06:57:59;;;;;;;6.57;2.55;;;10.00;84.90;;;;;;4996771;28;20080;-78
2021/05/04 07:00:25;;;;;;;6.40;2.47;;;10.00;85.00;;;;;;4992785;28;20022;-78
2021/05/04 07:02:52;;;;;;;8.88;2.13;;;10.10;85.90;;;;;;4999896;28;20052;-80
2021/05/04 07:05:19;;;;;;;9.55;1.88;;;10.10;84.10;;;;;;5000500;28;20025;-78
2021/05/04 07:07:45;;;;;;;14.82;3.55;;;10.20;81.40;;;;;;4998683;28;20478;-76
2021/05/04 07:10:12;;;;;;;9.88;2.58;;;10.20;82.30;;;;;;5001168;28;20025;-79
2021/05/04 07:12:41;;;;;;;9.32;3.28;;;10.30;82.30;;;;;;5002451;28;20024;-79
2021/05/04 07:15:10;;;;;;;10.30;2.58;;;10.30;85.60;;;;;;4999531;28;20007;-78
2021/05/04 07:17:36;;;;;;;13.75;2.92;;;10.40;82.70;;;;;;5002522;28;20455;-77
2021/05/04 07:20:08;;;;;;;7.07;2.35;;;10.40;83.70;;;;;;5011087;28;20109;-80
2021/05/04 07:22:37;;;;;;;9.68;3.05;;;10.40;83.40;;;;;;5011105;28;20680;-80
2021/05/04 07:25:04;;;;;;;13.60;3.05;;;10.40;84.80;;;;;;5010673;28;20022;-81
2021/05/04 07:27:30;;;;;;;12.05;3.33;;;10.40;83.10;;;;;;5011111;28;20076;-79
2021/05/04 07:29:56;;;;;;;10.05;2.88;;;10.40;83.80;;;;;;5011317;28;20045;-79
2021/05/04 07:32:21;;;;;;;6.53;2.22;;;10.30;83.90;;;;;;5010956;28;20034;-79
2021/05/04 07:34:48;;;;;;;8.63;3.47;;;10.30;81.90;;;;;;5011401;28;20053;-80
2021/05/04 07:37:14;;;;;;;10.60;3.13;;;10.40;85.40;;;;;;5011028;28;20026;-80
2021/05/04 07:39:42;;;;;;;12.07;3.17;;;10.30;84.70;;;;;;5011053;28;20021;-79
2021/05/04 07:42:10;;;;;;;9.05;2.95;;;10.40;85.90;;;;;;5012410;28;20045;-79
2021/05/04 07:44:35;;;;;;;8.88;2.63;;;10.40;83.90;;;;;;5011086;28;20017;-80
2021/05/04 07:47:02;;;;;;;8.35;2.60;;;10.40;83.90;;;;;;5011327;28;20219;-78
2021/05/04 07:49:36;;;;;;;10.20;3.00;;;10.50;82.50;;;;;;5011058;28;20076;-80
2021/05/04 07:52:02;;;;;;;12.80;3.65;;;10.50;83.40;;;;;;5011077;28;20049;-78
2021/05/04 07:54:31;;;;;;;9.20;3.08;;;10.50;84.50;;;;;;5010497;28;20018;-78
2021/05/04 07:56:56;;;;;;;9.18;3.00;;;10.40;85.70;;;;;;5000691;28;20014;-77
2021/05/04 07:59:22;;;;;;;11.35;3.47;;;10.40;85.20;;;;;;4991164;28;20077;-81
2021/05/04 08:01:48;;;;;;;7.70;2.72;;;10.40;86.20;;;;;;4991445;28;20026;-83
2021/05/04 08:04:16;;;;;;;12.10;2.92;;;10.20;86.00;;;;;;4991304;28;20010;-85
2021/05/04 08:06:42;;;;;;;8.48;2.67;;;10.00;87.80;;;;;;4991372;28;20022;-86
2021/05/04 08:09:08;;;;;;;10.80;2.50;;;9.80;87.30;;;;;;4991162;28;20023;-79
2021/05/04 08:11:35;;;;;;;7.25;2.90;;;9.70;89.80;;;;;;4992581;28;20051;-81
2021/05/04 08:14:01;;;;;;;7.05;2.53;;;9.50;89.90;;;;;;4991363;28;20058;-82
2021/05/04 08:16:30;;;;;;;7.70;2.17;;;9.40;90.30;;;;;;4991349;28;20069;-82
2021/05/04 08:18:55;;;;;;;15.38;3.35;;;9.30;90.50;;;;;;4991337;28;20022;-83
2021/05/04 08:21:22;;;;;;;10.68;3.00;;;9.30;90.40;;;;;;4990697;28;20026;-82
2021/05/04 08:23:47;;;;;;;6.65;3.30;;;9.50;90.80;;;;;;4990807;28;20069;-81
2021/05/04 08:26:14;;;;;;;12.02;3.97;;;9.50;90.30;;;;;;4993841;28;20101;-79
2021/05/04 08:28:40;;;;;;;12.82;3.85;;;9.70;91.00;;;;;;4994393;28;20534;-79
2021/05/04 08:31:06;;;;;;;16.33;4.10;;;9.80;90.70;;;;;;4994231;28;20510;-78
2021/05/04 08:33:32;;;;;;;12.05;3.90;;;10.00;89.50;;;;;;4994643;28;20034;-81
2021/05/04 08:35:57;;;;;;;10.55;4.47;;;10.20;88.80;;;;;;4994831;28;20025;-81
2021/05/04 08:38:23;;;;;;;16.85;4.15;;;10.30;88.60;;;;;;4994456;28;20522;-80
2021/05/04 08:40:49;;;;;;;14.45;3.90;;;10.30;89.00;;;;;;4994256;28;20019;-81
2021/05/04 08:43:32;;;;;;;15.93;4.80;;;10.50;86.30;;;;;;4994582;28;20019;-79
2021/05/04 08:45:59;;;;;;;11.70;3.97;;;10.50;87.30;;;;;;4995581;28;20018;-80
2021/05/04 08:48:25;;;;;;;7.93;2.97;;;10.60;84.20;;;;;;4994856;28;20022;-78
2021/05/04 08:50:55;;;;;;;12.63;3.55;;;10.70;81.80;;;;;;4995012;28;20054;-77
2021/05/04 08:53:22;;;;;;;16.63;3.92;;;10.70;82.10;;;;;;4994084;28;20026;-77
2021/05/04 08:55:48;;;;;;;12.65;3.47;;;10.70;82.80;;;;;;4994021;28;20018;-78
2021/05/04 08:58:15;;;;;;;14.15;3.35;;;10.80;83.50;;;;;;5004264;28;20360;-76
2021/05/04 09:00:41;;;;;;;13.00;3.47;;;10.80;83.00;;;;;;5013388;28;20435;-78
2021/05/04 09:05:52;;;;;;;17.27;3.83;;;10.80;82.10;;;;;;5015100;28;20025;-82
2021/05/04 09:08:38;;;;;;;22.63;4.45;;;10.70;84.80;;;;;;5014067;28;20387;-82
2021/05/04 09:11:45;;;;;;;15.70;4.90;;;10.70;85.40;;;;;;5013878;28;20354;-81
2021/05/04 09:19:22;;;;;;;19.10;4.47;;;10.70;89.50;;;;;;5014727;28;20038;-79
2021/05/04 09:21:48;;;;;;;11.30;4.32;;;11.00;85.50;;;;;;5013280;28;20116;-79
2021/05/04 09:24:27;;;;;;;13.43;3.83;;;11.30;85.00;;;;;;5012970;28;20044;-77
2021/05/04 09:26:58;;;;;;;17.25;4.35;;;11.30;82.60;;;;;;5014655;28;20084;-78
2021/05/04 09:29:32;;;;;;;12.27;3.63;;;11.30;84.30;;;;;;5012861;28;20022;-77
2021/05/04 09:32:13;;;;;;;15.32;4.40;;;11.30;81.10;;;;;;5014139;28;20053;-79
2021/05/04 09:34:47;;;;;;;11.25;2.83;;;11.30;81.40;;;;;;5012825;28;20455;-78
2021/05/04 09:37:41;;;;;;;9.80;2.85;;;11.50;82.80;;;;;;5017325;28;20040;-85
2021/05/04 09:40:27;;;;;;;10.77;2.60;;;11.60;81.60;;;;;;5020891;28;20451;-85
2021/05/04 09:43:11;;;;;;;11.63;2.55;;;11.90;77.90;;;;;;5012828;28;20060;-79
2021/05/04 09:45:42;;;;;;;7.63;2.25;;;12.10;75.60;;;;;;5012678;28;20077;-79
2021/05/04 09:48:14;;;;;;;13.93;2.97;;;12.00;74.20;;;;;;5012947;28;20025;-79
2021/05/04 09:50:58;;;;;;;12.73;2.22;;;11.90;74.70;;;;;;5012798;28;20108;-79
2021/05/04 09:53:34;;;;;;;14.73;3.00;;;11.70;76.20;;;;;;5014246;28;20022;-81
2021/05/04 09:56:01;;;;;;;11.85;4.13;;;11.50;80.60;;;;;;5009495;28;20018;-80
2021/05/04 09:58:37;;;;;;;24.40;7.00;;;11.30;80.60;;;;;;4994941;28;20411;-84
2021/05/04 10:01:06;;;;;;;13.02;4.13;;;11.00;85.40;;;;;;4993307;28;20112;-82
2021/05/04 10:03:33;;;;;;;13.05;4.53;;;10.80;85.10;;;;;;4994086;28;20014;-80
2021/05/04 10:06:00;;;;;;;11.75;3.55;;;10.70;87.80;;;;;;4993006;28;20015;-82
2021/05/04 10:08:31;;;;;;;10.40;2.83;;;10.70;85.60;;;;;;4992810;28;20470;-79
2021/05/04 10:11:08;;;;;;;9.93;3.28;;;10.70;84.30;;;;;;4992971;28;20022;-81
2021/05/04 10:13:36;;;;;;;15.30;3.83;;;10.70;84.30;;;;;;4992741;28;20072;-81
2021/05/04 10:16:03;;;;;;;13.43;3.30;;;10.60;85.70;;;;;;4992972;28;20026;-81
2021/05/04 10:18:29;;;;;;;9.90;3.42;;;10.60;85.80;;;;;;4992421;28;20028;-78
2021/05/04 10:20:58;;;;;;;16.02;4.03;;;10.60;85.40;;;;;;4992604;28;20018;-81
2021/05/04 10:23:25;;;;;;;8.98;2.58;;;10.60;84.70;;;;;;4993789;28;20022;-84
2021/05/04 10:25:53;;;;;;;8.07;1.90;;;10.60;85.40;;;;;;4992988;28;20025;-84
2021/05/04 10:28:21;;;;;;;9.55;2.65;;;10.50;85.20;;;;;;4992524;28;20474;-80
2021/05/04 10:30:47;;;;;;;9.30;1.92;;;10.60;85.00;;;;;;4976640;28;20085;-83
2021/05/04 10:33:29;;;;;;;10.45;2.03;;;10.90;84.60;;;;;;4993983;28;20096;-83
2021/05/04 10:35:55;;;;;;;10.85;2.70;;;11.30;79.40;;;;;;4992864;28;20097;-82
2021/05/04 10:38:21;;;;;;;6.60;1.70;;;11.70;81.00;;;;;;4993009;28;20412;-84
2021/05/04 10:40:58;;;;;;;9.85;1.50;;;12.00;75.30;;;;;;4994005;28;20057;-82
2021/05/04 10:43:23;;;;;;;8.73;1.73;;;12.30;76.30;;;;;;5005640;28;20022;-82
2021/05/04 10:45:53;;;;;;;9.02;1.58;;;12.50;72.40;;;;;;5006257;28;20486;-82
2021/05/04 10:48:38;;;;;;;10.45;2.58;;;12.30;70.90;;;;;;5003841;28;20391;-81
2021/05/04 10:51:11;;;;;;;5.95;1.33;;;12.10;70.30;;;;;;4999689;28;20026;-81
2021/05/04 10:53:49;;;;;;;7.35;1.30;;;11.80;71.60;;;;;;4992674;28;20041;-82
2021/05/04 10:56:16;;;;;;;6.80;1.90;;;11.60;71.30;;;;;;4994782;28;20118;-82
2021/05/04 10:58:50;;;;;;;10.82;2.25;;;11.50;71.40;;;;;;4992617;28;20018;-82
2021/05/04 11:01:19;;;;;;;11.23;2.13;;;11.40;73.80;;;;;;4993062;28;20030;-81
2021/05/04 11:27:31;;;;;;;8.93;1.27;;;11.20;71.00;;;;;;5111334;27;20326;-80
2021/05/04 11:29:59;;;;;;;5.72;1.35;;;11.50;73.60;;;;;;5110547;28;20412;-79
2021/05/04 11:32:27;;;;;;;5.60;1.40;;;11.80;73.00;;;;;;5092642;28;20054;-79
2021/05/04 11:35:15;;;;;;;4.15;1.27;;;12.20;70.60;;;;;;5093006;28;20032;-79
2021/05/04 11:37:48;;;;;;;7.55;1.60;;;12.30;70.40;;;;;;5093196;28;20020;-79
2021/05/04 11:40:18;;;;;;;5.90;1.52;;;12.30;70.80;;;;;;5093505;28;20542;-80
2021/05/04 11:42:48;;;;;;;8.05;1.25;;;12.20;70.90;;;;;;5111003;28;20024;-79
2021/05/04 11:45:17;;;;;;;4.30;1.38;;;12.10;69.60;;;;;;5094187;28;20079;-79
2021/05/04 11:47:48;;;;;;;6.15;1.65;;;11.80;66.80;;;;;;5098505;28;20500;-80
2021/05/04 11:50:20;;;;;;;6.05;1.40;;;11.70;67.00;;;;;;5111628;28;20044;-79
2021/05/04 11:52:49;;;;;;;6.90;1.67;;;11.70;68.00;;;;;;5099086;28;20111;-79
2021/05/04 11:55:23;;;;;;;6.20;1.45;;;11.60;66.70;;;;;;5092705;28;20034;-81
2021/05/04 11:58:20;;;;;;;11.40;1.98;;;11.50;67.80;;;;;;5091891;28;20472;-80
2021/05/04 12:00:46;;;;;;;3.80;0.95;;;11.50;67.50;;;;;;5092667;28;20039;-80
2021/05/04 12:03:16;;;;;;;6.22;1.23;;;11.50;66.70;;;;;;5092013;28;20388;-80
2021/05/04 12:05:45;;;;;;;3.33;0.80;;;11.50;66.90;;;;;;5109673;28;20019;-81
2021/05/04 12:08:11;;;;;;;5.53;1.45;;;11.90;70.90;;;;;;5109484;28;20024;-80
2021/05/04 12:10:46;;;;;;;9.00;1.50;;;12.10;67.20;;;;;;5110314;28;20012;-80
2021/05/04 12:13:15;;;;;;;6.95;1.52;;;12.20;64.70;;;;;;5112923;28;20396;-80
2021/05/04 12:15:45;;;;;;;7.20;1.48;;;12.50;63.20;;;;;;5105424;28;20031;-79
2021/05/04 12:18:14;;;;;;;10.60;1.23;;;12.40;63.10;;;;;;5100673;28;20016;-81
2021/05/04 12:20:47;;;;;;;5.82;1.65;;;12.20;63.70;;;;;;5100344;28;20020;-80
2021/05/04 12:23:23;;;;;;;4.72;1.15;;;11.90;64.60;;;;;;5096377;28;20028;-80
2021/05/04 12:25:54;;;;;;;10.38;1.60;;;11.70;65.00;;;;;;5096171;28;20193;-79
2021/05/04 12:28:22;;;;;;;5.80;1.42;;;11.50;66.00;;;;;;5106042;28;20020;-81
2021/05/04 12:30:49;;;;;;;5.15;1.02;;;11.40;66.50;;;;;;5096335;28;20024;-80
2021/05/04 12:33:19;;;;;;;7.93;2.20;;;11.40;67.20;;;;;;5095227;28;20082;-80
2021/05/04 12:35:59;;;;;;;9.48;1.50;;;11.40;65.20;;;;;;5096205;28;20073;-81
2021/05/04 12:38:33;;;;;;;3.70;1.40;;;11.40;64.40;;;;;;5100051;28;20028;-78
2021/05/04 12:41:08;;;;;;;4.32;1.13;;;11.30;65.70;;;;;;5100309;28;20048;-80
2021/05/04 12:43:38;;;;;;;6.78;1.27;;;11.40;66.60;;;;;;5100649;28;20046;-80
2021/05/04 12:46:17;;;;;;;2.83;1.13;;;11.30;66.60;;;;;;5100436;28;20040;-79
2021/05/04 12:48:44;;;;;;;5.47;0.88;;;11.20;69.20;;;;;;5099695;28;20024;-80
2021/05/04 12:51:15;;;;;;;5.63;1.10;;;11.10;66.50;;;;;;5100720;28;20052;-78
2021/05/04 12:53:45;;;;;;;8.07;1.95;;;11.10;66.90;;;;;;5102012;28;20031;-78
2021/05/04 12:56:12;;;;;;;;;;;11.20;66.90;;;;;;5101708;28;20024;-79
2021/05/04 12:58:58;;;;;;;4.30;1.25;;;11.30;66.40;;;;;;5102515;28;19904;-80
2021/05/04 13:01:31;;;;;;;4.68;1.40;;;11.40;66.40;;;;;;5118172;28;20017;-77
2021/05/04 13:03:58;;;;;;;6.38;1.40;;;11.30;64.80;;;;;;5120301;28;20019;-76
2021/05/04 13:06:30;;;;;;;8.02;1.35;;;11.40;65.90;;;;;;5132377;28;20020;-77
2021/05/04 13:09:09;;;;;;;4.97;1.45;;;11.40;64.50;;;;;;5126279;28;20488;-78
2021/05/04 13:30:43;;;;;;;6.95;1.48;;;10.00;77.50;;;;;;5094835;28;20031;-79
2021/05/04 13:33:12;;;;;;;7.57;1.77;;;10.10;76.80;;;;;;5093080;28;20028;-77
2021/05/04 13:49:06;;;;;;;8.45;1.73;;;11.60;71.30;;;;;;5096268;28;20119;-81
2021/05/04 13:51:32;;;;;;;8.68;1.30;;;11.90;71.30;;;;;;5094310;28;20047;-82
2021/05/04 13:53:57;;;;;;;7.07;1.40;;;12.10;69.80;;;;;;5094990;28;20556;-81
2021/05/04 13:56:23;;;;;;;5.93;1.33;;;12.30;68.00;;;;;;5094690;28;20024;-81